sensor_id;sensor_type;location;lat;lon;timestamp;temperature;humidity
802;DHT22;383;48.766;9.270;2022-10-16T00:01:34;17.60;97.10
802;DHT22;383;48.766;9.270;2022-10-16T00:04:02;17.60;97.30
802;DHT22;383;48.766;9.270;2022-10-16T00:06:30;17.60;97.50
802;DHT22;383;48.766;9.270;2022-10-16T00:08:58;17.50;97.60
802;DHT22;383;48.766;9.270;2022-10-16T00:11:29;17.50;97.70
802;DHT22;383;48.766;9.270;2022-10-16T00:14:00;17.50;97.70
802;DHT22;383;48.766;9.270;2022-10-16T00:16:28;17.60;97.20
802;DHT22;383;48.766;9.270;2022-10-16T00:18:55;17.50;97.20
802;DHT22;383;48.766;9.270;2022-10-16T00:21:24;17.50;97.40
802;DHT22;383;48.766;9.270;2022-10-16T00:23:52;17.40;97.50
802;DHT22;383;48.766;9.270;2022-10-16T00:26:20;17.40;97.60
802;DHT22;383;48.766;9.270;2022-10-16T00:28:47;17.30;97.70
802;DHT22;383;48.766;9.270;2022-10-16T00:31:16;17.30;97.70
802;DHT22;383;48.766;9.270;2022-10-16T00:33:43;17.30;97.80
802;DHT22;383;48.766;9.270;2022-10-16T00:36:13;17.30;97.60
802;DHT22;383;48.766;9.270;2022-10-16T00:38:40;17.20;97.80
802;DHT22;383;48.766;9.270;2022-10-16T00:41:09;17.20;97.70
802;DHT22;383;48.766;9.270;2022-10-16T00:43:40;17.10;97.70
802;DHT22;383;48.766;9.270;2022-10-16T00:46:13;17.00;98.10
802;DHT22;383;48.766;9.270;2022-10-16T00:48:42;17.00;98.10
802;DHT22;383;48.766;9.270;2022-10-16T00:51:11;16.90;98.10
802;DHT22;383;48.766;9.270;2022-10-16T00:53:38;16.90;98.40
802;DHT22;383;48.766;9.270;2022-10-16T00:56:05;16.80;98.30
802;DHT22;383;48.766;9.270;2022-10-16T00:58:32;16.80;98.70
802;DHT22;383;48.766;9.270;2022-10-16T01:01:00;16.80;98.50
802;DHT22;383;48.766;9.270;2022-10-16T01:03:29;16.70;98.90
802;DHT22;383;48.766;9.270;2022-10-16T01:06:13;16.70;98.90
802;DHT22;383;48.766;9.270;2022-10-16T01:08:53;16.70;98.90
802;DHT22;383;48.766;9.270;2022-10-16T01:11:29;16.70;99.20
802;DHT22;383;48.766;9.270;2022-10-16T01:14:01;16.60;99.30
802;DHT22;383;48.766;9.270;2022-10-16T01:16:35;16.60;99.40
802;DHT22;383;48.766;9.270;2022-10-16T01:19:09;16.60;99.50
802;DHT22;383;48.766;9.270;2022-10-16T01:21:40;16.70;99.20
802;DHT22;383;48.766;9.270;2022-10-16T01:24:14;16.70;98.90
802;DHT22;383;48.766;9.270;2022-10-16T01:27:08;16.80;98.80
802;DHT22;383;48.766;9.270;2022-10-16T01:29:39;16.70;99.00
802;DHT22;383;48.766;9.270;2022-10-16T01:32:11;16.70;98.90
802;DHT22;383;48.766;9.270;2022-10-16T01:34:52;16.60;99.30
802;DHT22;383;48.766;9.270;2022-10-16T01:37:31;16.60;99.40
802;DHT22;383;48.766;9.270;2022-10-16T01:40:00;16.60;99.60
802;DHT22;383;48.766;9.270;2022-10-16T01:42:34;16.60;99.40
802;DHT22;383;48.766;9.270;2022-10-16T01:45:02;16.60;99.60
802;DHT22;383;48.766;9.270;2022-10-16T01:47:32;16.60;99.70
802;DHT22;383;48.766;9.270;2022-10-16T01:50:00;16.60;99.80
802;DHT22;383;48.766;9.270;2022-10-16T01:52:31;16.60;99.70
802;DHT22;383;48.766;9.270;2022-10-16T01:55:00;16.60;99.50
802;DHT22;383;48.766;9.270;2022-10-16T01:57:31;16.70;99.40
802;DHT22;383;48.766;9.270;2022-10-16T02:00:03;16.70;99.50
802;DHT22;383;48.766;9.270;2022-10-16T02:02:32;16.70;99.60
802;DHT22;383;48.766;9.270;2022-10-16T02:05:04;16.70;99.60
802;DHT22;383;48.766;9.270;2022-10-16T02:07:31;16.70;99.70
802;DHT22;383;48.766;9.270;2022-10-16T02:09:59;16.70;99.70
802;DHT22;383;48.766;9.270;2022-10-16T02:12:28;16.70;99.80
802;DHT22;383;48.766;9.270;2022-10-16T02:14:56;16.70;99.90
802;DHT22;383;48.766;9.270;2022-10-16T02:17:24;16.70;99.90
802;DHT22;383;48.766;9.270;2022-10-16T02:19:53;16.70;99.70
802;DHT22;383;48.766;9.270;2022-10-16T02:22:24;16.80;99.80
802;DHT22;383;48.766;9.270;2022-10-16T02:24:56;16.80;99.70
802;DHT22;383;48.766;9.270;2022-10-16T02:27:27;16.80;99.70
802;DHT22;383;48.766;9.270;2022-10-16T02:30:02;16.70;99.70
802;DHT22;383;48.766;9.270;2022-10-16T02:32:34;16.80;99.50
802;DHT22;383;48.766;9.270;2022-10-16T02:35:02;16.80;99.40
802;DHT22;383;48.766;9.270;2022-10-16T02:37:31;16.80;99.50
802;DHT22;383;48.766;9.270;2022-10-16T02:39:58;16.80;99.30
802;DHT22;383;48.766;9.270;2022-10-16T02:42:29;16.80;99.20
802;DHT22;383;48.766;9.270;2022-10-16T02:45:00;16.80;99.20
802;DHT22;383;48.766;9.270;2022-10-16T02:47:27;16.80;99.30
802;DHT22;383;48.766;9.270;2022-10-16T02:49:53;16.80;99.20
802;DHT22;383;48.766;9.270;2022-10-16T02:52:20;16.80;99.30
802;DHT22;383;48.766;9.270;2022-10-16T02:54:47;16.80;99.60
802;DHT22;383;48.766;9.270;2022-10-16T02:57:14;16.80;99.80
802;DHT22;383;48.766;9.270;2022-10-16T02:59:41;16.80;99.60
802;DHT22;383;48.766;9.270;2022-10-16T03:02:09;16.80;99.60
802;DHT22;383;48.766;9.270;2022-10-16T03:04:35;16.80;99.70
802;DHT22;383;48.766;9.270;2022-10-16T03:07:03;16.70;99.90
802;DHT22;383;48.766;9.270;2022-10-16T03:09:30;16.80;99.90
802;DHT22;383;48.766;9.270;2022-10-16T03:11:56;16.80;99.70
802;DHT22;383;48.766;9.270;2022-10-16T03:14:23;16.70;99.90
802;DHT22;383;48.766;9.270;2022-10-16T03:16:50;16.70;99.90
802;DHT22;383;48.766;9.270;2022-10-16T03:19:18;16.80;99.80
802;DHT22;383;48.766;9.270;2022-10-16T03:21:45;16.80;99.40
802;DHT22;383;48.766;9.270;2022-10-16T03:24:12;16.70;99.60
802;DHT22;383;48.766;9.270;2022-10-16T03:26:39;16.70;99.60
802;DHT22;383;48.766;9.270;2022-10-16T03:29:06;16.70;99.50
802;DHT22;383;48.766;9.270;2022-10-16T03:31:32;16.70;99.50
802;DHT22;383;48.766;9.270;2022-10-16T03:33:59;16.70;99.50
802;DHT22;383;48.766;9.270;2022-10-16T03:36:27;16.70;99.30
802;DHT22;383;48.766;9.270;2022-10-16T03:38:54;16.70;99.20
802;DHT22;383;48.766;9.270;2022-10-16T03:41:20;16.70;99.20
802;DHT22;383;48.766;9.270;2022-10-16T03:43:47;16.70;99.30
802;DHT22;383;48.766;9.270;2022-10-16T03:46:14;16.70;99.10
802;DHT22;383;48.766;9.270;2022-10-16T03:48:41;16.70;99.00
802;DHT22;383;48.766;9.270;2022-10-16T03:51:07;16.60;99.10
802;DHT22;383;48.766;9.270;2022-10-16T03:53:35;16.60;99.20
802;DHT22;383;48.766;9.270;2022-10-16T03:56:02;16.60;99.30
802;DHT22;383;48.766;9.270;2022-10-16T03:58:29;16.60;99.10
802;DHT22;383;48.766;9.270;2022-10-16T04:00:55;16.60;98.90
802;DHT22;383;48.766;9.270;2022-10-16T04:03:22;16.60;99.00
802;DHT22;383;48.766;9.270;2022-10-16T04:05:49;16.60;99.20
802;DHT22;383;48.766;9.270;2022-10-16T04:08:16;16.50;99.20
802;DHT22;383;48.766;9.270;2022-10-16T04:10:48;16.40;99.30
802;DHT22;383;48.766;9.270;2022-10-16T04:13:14;16.40;99.50
802;DHT22;383;48.766;9.270;2022-10-16T04:15:41;16.40;99.40
802;DHT22;383;48.766;9.270;2022-10-16T04:18:08;16.40;99.20
802;DHT22;383;48.766;9.270;2022-10-16T04:20:34;16.40;99.20
802;DHT22;383;48.766;9.270;2022-10-16T04:23:01;16.40;99.30
802;DHT22;383;48.766;9.270;2022-10-16T04:25:31;16.30;99.70
802;DHT22;383;48.766;9.270;2022-10-16T04:27:59;16.20;99.90
802;DHT22;383;48.766;9.270;2022-10-16T04:30:26;16.20;99.90
802;DHT22;383;48.766;9.270;2022-10-16T04:32:52;16.20;99.90
802;DHT22;383;48.766;9.270;2022-10-16T04:35:20;16.20;99.90
802;DHT22;383;48.766;9.270;2022-10-16T04:37:47;16.20;99.90
802;DHT22;383;48.766;9.270;2022-10-16T04:40:14;16.20;99.90
802;DHT22;383;48.766;9.270;2022-10-16T04:42:41;16.20;99.90
802;DHT22;383;48.766;9.270;2022-10-16T04:45:10;16.20;99.90
802;DHT22;383;48.766;9.270;2022-10-16T04:47:36;16.20;99.90
802;DHT22;383;48.766;9.270;2022-10-16T04:50:04;16.20;99.90
802;DHT22;383;48.766;9.270;2022-10-16T04:52:31;16.40;99.90
802;DHT22;383;48.766;9.270;2022-10-16T04:54:58;16.30;99.90
802;DHT22;383;48.766;9.270;2022-10-16T04:57:27;16.30;99.90
802;DHT22;383;48.766;9.270;2022-10-16T04:59:55;16.30;99.90
802;DHT22;383;48.766;9.270;2022-10-16T05:02:23;16.30;99.90
802;DHT22;383;48.766;9.270;2022-10-16T05:04:49;16.30;99.90
802;DHT22;383;48.766;9.270;2022-10-16T05:07:16;16.30;99.90
802;DHT22;383;48.766;9.270;2022-10-16T05:09:43;16.30;99.90
802;DHT22;383;48.766;9.270;2022-10-16T05:12:09;16.30;99.90
802;DHT22;383;48.766;9.270;2022-10-16T05:14:36;16.30;99.90
802;DHT22;383;48.766;9.270;2022-10-16T05:17:03;16.30;99.90
802;DHT22;383;48.766;9.270;2022-10-16T05:19:31;16.30;99.90
802;DHT22;383;48.766;9.270;2022-10-16T05:21:57;16.30;99.90
802;DHT22;383;48.766;9.270;2022-10-16T05:24:24;16.30;99.90
802;DHT22;383;48.766;9.270;2022-10-16T05:26:51;16.30;99.80
802;DHT22;383;48.766;9.270;2022-10-16T05:29:18;16.30;99.90
802;DHT22;383;48.766;9.270;2022-10-16T05:31:45;16.30;99.90
802;DHT22;383;48.766;9.270;2022-10-16T05:34:12;16.30;99.90
802;DHT22;383;48.766;9.270;2022-10-16T05:36:40;16.30;99.70
802;DHT22;383;48.766;9.270;2022-10-16T05:39:06;16.30;99.60
802;DHT22;383;48.766;9.270;2022-10-16T05:41:33;16.30;99.70
802;DHT22;383;48.766;9.270;2022-10-16T05:44:00;16.20;99.80
802;DHT22;383;48.766;9.270;2022-10-16T05:46:26;16.20;99.90
802;DHT22;383;48.766;9.270;2022-10-16T05:48:53;16.20;99.90
802;DHT22;383;48.766;9.270;2022-10-16T05:51:22;16.10;99.90
802;DHT22;383;48.766;9.270;2022-10-16T05:53:52;16.10;99.90
802;DHT22;383;48.766;9.270;2022-10-16T05:56:19;16.10;99.90
802;DHT22;383;48.766;9.270;2022-10-16T05:58:46;16.00;99.90
802;DHT22;383;48.766;9.270;2022-10-16T06:01:14;16.00;99.90
802;DHT22;383;48.766;9.270;2022-10-16T06:03:41;16.00;99.90
802;DHT22;383;48.766;9.270;2022-10-16T06:06:09;16.00;99.90
802;DHT22;383;48.766;9.270;2022-10-16T06:08:36;16.10;99.90
802;DHT22;383;48.766;9.270;2022-10-16T06:11:07;16.10;99.90
802;DHT22;383;48.766;9.270;2022-10-16T06:13:34;16.10;99.90
802;DHT22;383;48.766;9.270;2022-10-16T06:16:02;16.10;99.90
802;DHT22;383;48.766;9.270;2022-10-16T06:18:30;16.10;99.90
802;DHT22;383;48.766;9.270;2022-10-16T06:20:57;16.10;99.90
802;DHT22;383;48.766;9.270;2022-10-16T06:23:24;16.20;99.90
802;DHT22;383;48.766;9.270;2022-10-16T06:25:51;16.20;99.90
802;DHT22;383;48.766;9.270;2022-10-16T06:28:19;16.30;99.80
802;DHT22;383;48.766;9.270;2022-10-16T06:30:45;16.30;99.60
802;DHT22;383;48.766;9.270;2022-10-16T06:33:12;16.30;99.50
802;DHT22;383;48.766;9.270;2022-10-16T06:35:39;16.30;99.70
802;DHT22;383;48.766;9.270;2022-10-16T06:38:06;16.30;99.80
802;DHT22;383;48.766;9.270;2022-10-16T06:40:32;16.30;99.80
802;DHT22;383;48.766;9.270;2022-10-16T06:42:59;16.30;99.90
802;DHT22;383;48.766;9.270;2022-10-16T06:45:27;16.30;99.90
802;DHT22;383;48.766;9.270;2022-10-16T06:47:54;16.40;99.90
802;DHT22;383;48.766;9.270;2022-10-16T06:50:21;16.50;99.90
802;DHT22;383;48.766;9.270;2022-10-16T06:52:50;16.60;99.90
802;DHT22;383;48.766;9.270;2022-10-16T06:55:17;16.60;99.90
802;DHT22;383;48.766;9.270;2022-10-16T06:57:46;16.70;99.90
802;DHT22;383;48.766;9.270;2022-10-16T07:00:14;16.80;99.90
802;DHT22;383;48.766;9.270;2022-10-16T07:02:42;16.90;99.40
802;DHT22;383;48.766;9.270;2022-10-16T07:05:08;17.00;98.60
802;DHT22;383;48.766;9.270;2022-10-16T07:07:35;17.00;98.40
802;DHT22;383;48.766;9.270;2022-10-16T07:10:02;17.00;98.50
802;DHT22;383;48.766;9.270;2022-10-16T07:12:29;17.10;98.30
802;DHT22;383;48.766;9.270;2022-10-16T07:14:56;17.10;98.40
802;DHT22;383;48.766;9.270;2022-10-16T07:17:23;17.20;98.50
802;DHT22;383;48.766;9.270;2022-10-16T07:19:51;17.20;98.70
802;DHT22;383;48.766;9.270;2022-10-16T07:22:18;17.30;98.60
802;DHT22;383;48.766;9.270;2022-10-16T07:24:45;17.40;98.20
802;DHT22;383;48.766;9.270;2022-10-16T07:27:12;17.50;97.40
802;DHT22;383;48.766;9.270;2022-10-16T07:29:42;17.60;97.00
802;DHT22;383;48.766;9.270;2022-10-16T07:32:08;17.60;96.90
802;DHT22;383;48.766;9.270;2022-10-16T07:34:35;17.70;96.80
802;DHT22;383;48.766;9.270;2022-10-16T07:37:03;17.70;96.40
802;DHT22;383;48.766;9.270;2022-10-16T07:39:30;17.80;96.40
802;DHT22;383;48.766;9.270;2022-10-16T07:41:57;17.80;96.20
802;DHT22;383;48.766;9.270;2022-10-16T07:44:24;17.90;95.60
802;DHT22;383;48.766;9.270;2022-10-16T07:46:51;17.90;95.60
802;DHT22;383;48.766;9.270;2022-10-16T07:49:20;18.00;95.00
802;DHT22;383;48.766;9.270;2022-10-16T07:51:47;18.00;95.10
802;DHT22;383;48.766;9.270;2022-10-16T07:54:15;18.10;94.70
802;DHT22;383;48.766;9.270;2022-10-16T07:56:42;18.10;94.10
802;DHT22;383;48.766;9.270;2022-10-16T07:59:09;18.20;93.70
802;DHT22;383;48.766;9.270;2022-10-16T08:01:36;18.30;93.60
802;DHT22;383;48.766;9.270;2022-10-16T08:04:03;18.40;93.20
802;DHT22;383;48.766;9.270;2022-10-16T08:06:35;18.30;93.40
802;DHT22;383;48.766;9.270;2022-10-16T08:09:02;18.40;93.50
802;DHT22;383;48.766;9.270;2022-10-16T08:11:30;18.40;93.60
802;DHT22;383;48.766;9.270;2022-10-16T08:13:57;18.50;92.80
802;DHT22;383;48.766;9.270;2022-10-16T08:16:24;18.60;92.90
802;DHT22;383;48.766;9.270;2022-10-16T08:18:51;18.60;92.70
802;DHT22;383;48.766;9.270;2022-10-16T08:21:19;18.70;92.40
802;DHT22;383;48.766;9.270;2022-10-16T08:23:48;18.80;92.10
802;DHT22;383;48.766;9.270;2022-10-16T08:26:15;18.90;92.10
802;DHT22;383;48.766;9.270;2022-10-16T08:28:43;19.00;91.80
802;DHT22;383;48.766;9.270;2022-10-16T08:31:12;19.00;91.00
802;DHT22;383;48.766;9.270;2022-10-16T08:33:40;19.10;91.50
802;DHT22;383;48.766;9.270;2022-10-16T08:36:09;19.30;91.40
802;DHT22;383;48.766;9.270;2022-10-16T08:38:36;19.40;90.60
802;DHT22;383;48.766;9.270;2022-10-16T08:41:17;19.60;89.90
802;DHT22;383;48.766;9.270;2022-10-16T08:44:08;19.90;90.00
802;DHT22;383;48.766;9.270;2022-10-16T08:46:44;20.10;88.20
802;DHT22;383;48.766;9.270;2022-10-16T08:49:13;20.30;87.10
802;DHT22;383;48.766;9.270;2022-10-16T08:51:40;20.30;87.10
802;DHT22;383;48.766;9.270;2022-10-16T08:54:21;20.40;86.00
802;DHT22;383;48.766;9.270;2022-10-16T08:56:49;20.50;86.10
802;DHT22;383;48.766;9.270;2022-10-16T08:59:18;20.60;85.90
802;DHT22;383;48.766;9.270;2022-10-16T09:01:47;20.60;85.90
802;DHT22;383;48.766;9.270;2022-10-16T09:07:16;20.70;85.20
802;DHT22;383;48.766;9.270;2022-10-16T09:10:05;20.70;84.70
802;DHT22;383;48.766;9.270;2022-10-16T09:12:36;20.70;85.30
802;DHT22;383;48.766;9.270;2022-10-16T09:15:16;20.80;84.70
802;DHT22;383;48.766;9.270;2022-10-16T09:17:52;21.00;84.70
802;DHT22;383;48.766;9.270;2022-10-16T09:20:33;21.10;84.40
802;DHT22;383;48.766;9.270;2022-10-16T09:23:13;21.20;83.70
802;DHT22;383;48.766;9.270;2022-10-16T09:25:43;21.40;81.60
802;DHT22;383;48.766;9.270;2022-10-16T09:28:11;21.30;81.50
802;DHT22;383;48.766;9.270;2022-10-16T09:30:39;21.30;81.40
802;DHT22;383;48.766;9.270;2022-10-16T09:33:06;21.30;81.20
802;DHT22;383;48.766;9.270;2022-10-16T09:35:37;21.30;81.40
802;DHT22;383;48.766;9.270;2022-10-16T09:38:05;21.30;81.60
802;DHT22;383;48.766;9.270;2022-10-16T09:40:34;21.40;83.00
802;DHT22;383;48.766;9.270;2022-10-16T09:43:06;21.40;83.00
802;DHT22;383;48.766;9.270;2022-10-16T09:45:40;21.40;84.10
802;DHT22;383;48.766;9.270;2022-10-16T09:48:11;21.40;83.90
802;DHT22;383;48.766;9.270;2022-10-16T09:50:39;21.40;83.00
802;DHT22;383;48.766;9.270;2022-10-16T09:53:10;21.40;83.40
802;DHT22;383;48.766;9.270;2022-10-16T09:55:48;21.50;84.00
802;DHT22;383;48.766;9.270;2022-10-16T09:58:15;21.60;84.40
802;DHT22;383;48.766;9.270;2022-10-16T10:00:49;21.70;83.60
802;DHT22;383;48.766;9.270;2022-10-16T10:03:33;21.80;82.40
802;DHT22;383;48.766;9.270;2022-10-16T10:06:03;21.80;81.50
802;DHT22;383;48.766;9.270;2022-10-16T10:08:31;21.80;81.20
802;DHT22;383;48.766;9.270;2022-10-16T10:10:58;21.70;81.60
802;DHT22;383;48.766;9.270;2022-10-16T10:13:25;21.80;82.20
802;DHT22;383;48.766;9.270;2022-10-16T10:15:54;21.90;82.20
802;DHT22;383;48.766;9.270;2022-10-16T10:18:21;21.90;81.80
802;DHT22;383;48.766;9.270;2022-10-16T10:20:57;22.00;81.60
802;DHT22;383;48.766;9.270;2022-10-16T10:23:26;22.00;81.60
802;DHT22;383;48.766;9.270;2022-10-16T10:25:58;22.10;81.90
802;DHT22;383;48.766;9.270;2022-10-16T10:28:47;22.10;81.20
802;DHT22;383;48.766;9.270;2022-10-16T10:31:26;22.10;80.20
802;DHT22;383;48.766;9.270;2022-10-16T10:33:59;22.10;80.30
802;DHT22;383;48.766;9.270;2022-10-16T10:36:33;22.20;79.90
802;DHT22;383;48.766;9.270;2022-10-16T10:39:04;22.20;79.30
802;DHT22;383;48.766;9.270;2022-10-16T10:41:56;22.20;80.20
802;DHT22;383;48.766;9.270;2022-10-16T10:44:44;22.20;81.10
802;DHT22;383;48.766;9.270;2022-10-16T10:47:25;22.40;80.40
802;DHT22;383;48.766;9.270;2022-10-16T10:50:00;22.50;79.40
802;DHT22;383;48.766;9.270;2022-10-16T10:52:43;22.70;78.70
802;DHT22;383;48.766;9.270;2022-10-16T10:55:21;22.80;77.40
802;DHT22;383;48.766;9.270;2022-10-16T11:00:51;23.10;75.80
802;DHT22;383;48.766;9.270;2022-10-16T11:03:35;23.10;75.60
802;DHT22;383;48.766;9.270;2022-10-16T11:06:10;23.10;74.90
802;DHT22;383;48.766;9.270;2022-10-16T11:08:42;23.10;74.60
802;DHT22;383;48.766;9.270;2022-10-16T11:11:14;23.20;73.30
802;DHT22;383;48.766;9.270;2022-10-16T11:13:49;23.20;74.00
802;DHT22;383;48.766;9.270;2022-10-16T11:16:22;23.30;72.60
802;DHT22;383;48.766;9.270;2022-10-16T11:18:59;23.40;73.00
802;DHT22;383;48.766;9.270;2022-10-16T11:21:40;23.50;71.90
802;DHT22;383;48.766;9.270;2022-10-16T11:24:15;23.50;72.00
802;DHT22;383;48.766;9.270;2022-10-16T11:26:45;23.60;71.90
802;DHT22;383;48.766;9.270;2022-10-16T11:29:17;23.60;71.10
802;DHT22;383;48.766;9.270;2022-10-16T11:31:50;23.70;70.30
802;DHT22;383;48.766;9.270;2022-10-16T11:34:23;23.70;70.70
802;DHT22;383;48.766;9.270;2022-10-16T11:36:55;23.60;70.70
802;DHT22;383;48.766;9.270;2022-10-16T11:39:25;23.60;69.90
802;DHT22;383;48.766;9.270;2022-10-16T11:41:55;23.70;71.10
802;DHT22;383;48.766;9.270;2022-10-16T11:44:41;23.70;70.50
802;DHT22;383;48.766;9.270;2022-10-16T11:47:23;23.70;71.60
802;DHT22;383;48.766;9.270;2022-10-16T11:49:55;23.70;71.10
802;DHT22;383;48.766;9.270;2022-10-16T11:52:28;23.80;70.10
802;DHT22;383;48.766;9.270;2022-10-16T11:55:01;23.90;70.10
802;DHT22;383;48.766;9.270;2022-10-16T11:57:33;23.90;69.70
802;DHT22;383;48.766;9.270;2022-10-16T12:00:05;24.00;69.30
802;DHT22;383;48.766;9.270;2022-10-16T12:02:47;24.00;69.70
802;DHT22;383;48.766;9.270;2022-10-16T12:05:27;24.10;68.20
802;DHT22;383;48.766;9.270;2022-10-16T12:08:09;24.20;67.90
802;DHT22;383;48.766;9.270;2022-10-16T12:10:37;24.30;67.90
802;DHT22;383;48.766;9.270;2022-10-16T12:13:04;24.50;67.20
802;DHT22;383;48.766;9.270;2022-10-16T12:15:33;24.60;67.40
802;DHT22;383;48.766;9.270;2022-10-16T12:18:00;24.60;67.20
802;DHT22;383;48.766;9.270;2022-10-16T12:20:30;24.60;66.80
802;DHT22;383;48.766;9.270;2022-10-16T12:22:59;24.70;66.20
802;DHT22;383;48.766;9.270;2022-10-16T12:25:29;24.70;64.90
802;DHT22;383;48.766;9.270;2022-10-16T12:28:01;24.80;63.50
802;DHT22;383;48.766;9.270;2022-10-16T12:30:30;25.00;64.30
802;DHT22;383;48.766;9.270;2022-10-16T12:32:58;25.10;64.10
802;DHT22;383;48.766;9.270;2022-10-16T12:35:30;25.20;64.70
802;DHT22;383;48.766;9.270;2022-10-16T12:38:12;25.30;62.30
802;DHT22;383;48.766;9.270;2022-10-16T12:40:42;25.50;61.30
802;DHT22;383;48.766;9.270;2022-10-16T12:43:38;25.70;59.00
802;DHT22;383;48.766;9.270;2022-10-16T12:46:23;25.90;58.70
802;DHT22;383;48.766;9.270;2022-10-16T12:48:50;25.90;58.70
802;DHT22;383;48.766;9.270;2022-10-16T12:51:34;25.90;59.50
802;DHT22;383;48.766;9.270;2022-10-16T12:54:04;26.00;60.50
802;DHT22;383;48.766;9.270;2022-10-16T12:56:41;26.00;60.00
802;DHT22;383;48.766;9.270;2022-10-16T12:59:20;25.90;60.40
802;DHT22;383;48.766;9.270;2022-10-16T13:02:14;25.60;61.50
802;DHT22;383;48.766;9.270;2022-10-16T13:04:59;25.50;60.60
802;DHT22;383;48.766;9.270;2022-10-16T13:07:45;25.30;62.30
802;DHT22;383;48.766;9.270;2022-10-16T13:10:20;25.20;63.40
802;DHT22;383;48.766;9.270;2022-10-16T13:13:10;25.20;61.80
802;DHT22;383;48.766;9.270;2022-10-16T13:15:52;25.10;60.60
802;DHT22;383;48.766;9.270;2022-10-16T13:18:24;25.00;63.50
802;DHT22;383;48.766;9.270;2022-10-16T13:21:07;25.00;64.70
802;DHT22;383;48.766;9.270;2022-10-16T13:23:43;25.00;65.90
802;DHT22;383;48.766;9.270;2022-10-16T13:26:22;25.10;64.30
802;DHT22;383;48.766;9.270;2022-10-16T13:28:52;25.30;61.50
802;DHT22;383;48.766;9.270;2022-10-16T13:31:21;25.30;61.30
802;DHT22;383;48.766;9.270;2022-10-16T13:33:51;25.40;61.30
802;DHT22;383;48.766;9.270;2022-10-16T13:36:21;25.50;61.00
802;DHT22;383;48.766;9.270;2022-10-16T13:39:00;25.50;62.30
802;DHT22;383;48.766;9.270;2022-10-16T13:41:27;25.50;62.60
802;DHT22;383;48.766;9.270;2022-10-16T13:43:54;25.60;64.60
802;DHT22;383;48.766;9.270;2022-10-16T13:46:23;25.60;64.70
802;DHT22;383;48.766;9.270;2022-10-16T13:48:57;25.70;62.60
802;DHT22;383;48.766;9.270;2022-10-16T13:51:26;25.80;62.30
802;DHT22;383;48.766;9.270;2022-10-16T13:53:55;25.80;62.30
802;DHT22;383;48.766;9.270;2022-10-16T13:56:24;25.90;63.90
802;DHT22;383;48.766;9.270;2022-10-16T13:58:59;25.90;63.50
802;DHT22;383;48.766;9.270;2022-10-16T14:01:28;26.00;61.50
802;DHT22;383;48.766;9.270;2022-10-16T14:04:01;26.00;61.90
802;DHT22;383;48.766;9.270;2022-10-16T14:06:28;25.90;62.30
802;DHT22;383;48.766;9.270;2022-10-16T14:09:02;25.90;61.30
802;DHT22;383;48.766;9.270;2022-10-16T14:11:32;25.80;59.50
802;DHT22;383;48.766;9.270;2022-10-16T14:14:00;25.70;60.40
802;DHT22;383;48.766;9.270;2022-10-16T14:16:30;25.50;61.50
802;DHT22;383;48.766;9.270;2022-10-16T14:18:59;25.40;64.20
802;DHT22;383;48.766;9.270;2022-10-16T14:21:27;25.30;65.50
802;DHT22;383;48.766;9.270;2022-10-16T14:23:55;25.20;67.10
802;DHT22;383;48.766;9.270;2022-10-16T14:26:26;25.00;67.40
802;DHT22;383;48.766;9.270;2022-10-16T14:29:10;24.90;68.40
802;DHT22;383;48.766;9.270;2022-10-16T14:31:37;24.80;68.70
802;DHT22;383;48.766;9.270;2022-10-16T14:34:23;24.80;69.10
802;DHT22;383;48.766;9.270;2022-10-16T14:36:50;24.80;68.70
802;DHT22;383;48.766;9.270;2022-10-16T14:39:19;24.80;70.10
802;DHT22;383;48.766;9.270;2022-10-16T14:41:49;24.80;71.60
802;DHT22;383;48.766;9.270;2022-10-16T14:44:18;24.80;71.90
802;DHT22;383;48.766;9.270;2022-10-16T14:46:45;24.70;73.40
802;DHT22;383;48.766;9.270;2022-10-16T14:49:17;24.70;74.00
802;DHT22;383;48.766;9.270;2022-10-16T14:51:45;24.70;74.60
802;DHT22;383;48.766;9.270;2022-10-16T14:54:13;24.70;76.00
802;DHT22;383;48.766;9.270;2022-10-16T14:56:48;24.60;76.10
802;DHT22;383;48.766;9.270;2022-10-16T14:59:19;24.60;76.30
802;DHT22;383;48.766;9.270;2022-10-16T15:01:47;24.60;74.40
802;DHT22;383;48.766;9.270;2022-10-16T15:04:14;24.60;73.70
802;DHT22;383;48.766;9.270;2022-10-16T15:06:41;24.60;73.20
802;DHT22;383;48.766;9.270;2022-10-16T15:09:07;24.60;73.60
802;DHT22;383;48.766;9.270;2022-10-16T15:11:34;24.50;73.30
802;DHT22;383;48.766;9.270;2022-10-16T15:14:03;24.40;71.60
802;DHT22;383;48.766;9.270;2022-10-16T15:16:30;24.40;71.30
802;DHT22;383;48.766;9.270;2022-10-16T15:18:57;24.40;72.30
802;DHT22;383;48.766;9.270;2022-10-16T15:21:25;24.30;72.80
802;DHT22;383;48.766;9.270;2022-10-16T15:23:53;24.30;73.20
802;DHT22;383;48.766;9.270;2022-10-16T15:26:22;24.30;72.10
802;DHT22;383;48.766;9.270;2022-10-16T15:28:48;24.30;72.90
802;DHT22;383;48.766;9.270;2022-10-16T15:31:16;24.30;74.00
802;DHT22;383;48.766;9.270;2022-10-16T15:33:43;24.40;74.50
802;DHT22;383;48.766;9.270;2022-10-16T15:36:13;24.30;76.00
802;DHT22;383;48.766;9.270;2022-10-16T15:38:39;24.20;76.30
802;DHT22;383;48.766;9.270;2022-10-16T15:41:06;24.20;76.60
802;DHT22;383;48.766;9.270;2022-10-16T15:43:33;24.10;76.90
802;DHT22;383;48.766;9.270;2022-10-16T15:46:01;24.00;77.00
802;DHT22;383;48.766;9.270;2022-10-16T15:48:30;23.90;78.20
802;DHT22;383;48.766;9.270;2022-10-16T15:50:57;23.80;78.90
802;DHT22;383;48.766;9.270;2022-10-16T15:53:24;23.70;79.70
802;DHT22;383;48.766;9.270;2022-10-16T15:55:51;23.60;80.60
802;DHT22;383;48.766;9.270;2022-10-16T15:58:18;23.50;81.00
802;DHT22;383;48.766;9.270;2022-10-16T16:00:44;23.40;81.50
802;DHT22;383;48.766;9.270;2022-10-16T16:03:11;23.30;81.80
802;DHT22;383;48.766;9.270;2022-10-16T16:05:39;23.10;82.40
802;DHT22;383;48.766;9.270;2022-10-16T16:08:06;23.00;83.10
802;DHT22;383;48.766;9.270;2022-10-16T16:10:33;22.90;84.10
802;DHT22;383;48.766;9.270;2022-10-16T16:13:00;22.80;84.50
802;DHT22;383;48.766;9.270;2022-10-16T16:15:27;22.60;85.50
802;DHT22;383;48.766;9.270;2022-10-16T16:17:53;22.50;86.30
802;DHT22;383;48.766;9.270;2022-10-16T16:20:20;22.40;86.50
802;DHT22;383;48.766;9.270;2022-10-16T16:22:48;22.30;86.90
802;DHT22;383;48.766;9.270;2022-10-16T16:25:15;22.20;87.10
802;DHT22;383;48.766;9.270;2022-10-16T16:27:42;22.00;87.40
802;DHT22;383;48.766;9.270;2022-10-16T16:30:10;21.80;88.10
802;DHT22;383;48.766;9.270;2022-10-16T16:32:37;21.70;88.40
802;DHT22;383;48.766;9.270;2022-10-16T16:35:05;21.50;88.90
802;DHT22;383;48.766;9.270;2022-10-16T16:37:32;21.40;89.30
802;DHT22;383;48.766;9.270;2022-10-16T16:40:00;21.30;89.40
802;DHT22;383;48.766;9.270;2022-10-16T16:42:27;21.10;89.40
802;DHT22;383;48.766;9.270;2022-10-16T16:44:54;21.00;89.70
802;DHT22;383;48.766;9.270;2022-10-16T16:47:21;20.90;89.70
802;DHT22;383;48.766;9.270;2022-10-16T16:49:48;20.90;89.30
802;DHT22;383;48.766;9.270;2022-10-16T16:52:15;20.80;89.20
802;DHT22;383;48.766;9.270;2022-10-16T16:54:42;20.60;89.80
802;DHT22;383;48.766;9.270;2022-10-16T16:57:11;20.50;89.40
802;DHT22;383;48.766;9.270;2022-10-16T16:59:37;20.40;90.00